sensor_id;sensor_type;location;lat;lon;timestamp;P1;durP1;ratioP1;P2;durP2;ratioP2
10074;SDS011;5076;42.680;23.288;2023-02-12T00:01:01;7.53;;;5.43;;
10074;SDS011;5076;42.680;23.288;2023-02-12T00:03:28;7.03;;;5.00;;
10074;SDS011;5076;42.680;23.288;2023-02-12T00:05:59;6.67;;;5.37;;
10074;SDS011;5076;42.680;23.288;2023-02-12T00:08:27;8.57;;;5.70;;
10074;SDS011;5076;42.680;23.288;2023-02-12T00:10:54;7.63;;;5.20;;
10074;SDS011;5076;42.680;23.288;2023-02-12T00:13:21;8.37;;;5.37;;
10074;SDS011;5076;42.680;23.288;2023-02-12T00:15:48;8.60;;;5.27;;
10074;SDS011;5076;42.680;23.288;2023-02-12T00:18:15;10.50;;;5.33;;
10074;SDS011;5076;42.680;23.288;2023-02-12T00:20:42;8.83;;;5.73;;
10074;SDS011;5076;42.680;23.288;2023-02-12T00:23:09;12.67;;;5.50;;
10074;SDS011;5076;42.680;23.288;2023-02-12T00:25:40;8.87;;;5.80;;
10074;SDS011;5076;42.680;23.288;2023-02-12T00:28:07;8.83;;;5.13;;
10074;SDS011;5076;42.680;23.288;2023-02-12T00:30:34;9.10;;;5.43;;
10074;SDS011;5076;42.680;23.288;2023-02-12T00:33:01;7.10;;;5.27;;
10074;SDS011;5076;42.680;23.288;2023-02-12T00:35:28;8.10;;;4.97;;
10074;SDS011;5076;42.680;23.288;2023-02-12T00:37:55;8.60;;;5.67;;
10074;SDS011;5076;42.680;23.288;2023-02-12T00:40:21;8.73;;;6.37;;
10074;SDS011;5076;42.680;23.288;2023-02-12T00:42:50;7.43;;;4.90;;
10074;SDS011;5076;42.680;23.288;2023-02-12T00:45:16;7.03;;;5.10;;
10074;SDS011;5076;42.680;23.288;2023-02-12T00:47:43;7.20;;;5.03;;
10074;SDS011;5076;42.680;23.288;2023-02-12T00:50:10;6.10;;;5.00;;
10074;SDS011;5076;42.680;23.288;2023-02-12T00:52:37;7.70;;;5.53;;
10074;SDS011;5076;42.680;23.288;2023-02-12T00:55:04;7.93;;;5.30;;
10074;SDS011;5076;42.680;23.288;2023-02-12T00:57:31;7.40;;;5.23;;
10074;SDS011;5076;42.680;23.288;2023-02-12T00:59:59;8.77;;;5.27;;
10074;SDS011;5076;42.680;23.288;2023-02-12T01:02:26;7.87;;;5.30;;
10074;SDS011;5076;42.680;23.288;2023-02-12T01:04:53;7.67;;;5.23;;
10074;SDS011;5076;42.680;23.288;2023-02-12T01:07:20;7.87;;;5.30;;
10074;SDS011;5076;42.680;23.288;2023-02-12T01:09:47;7.27;;;4.73;;
10074;SDS011;5076;42.680;23.288;2023-02-12T01:12:14;6.50;;;4.50;;
10074;SDS011;5076;42.680;23.288;2023-02-12T01:14:40;8.50;;;5.17;;
10074;SDS011;5076;42.680;23.288;2023-02-12T01:17:09;9.33;;;5.10;;
10074;SDS011;5076;42.680;23.288;2023-02-12T01:19:35;8.27;;;5.23;;
10074;SDS011;5076;42.680;23.288;2023-02-12T01:22:02;8.13;;;5.90;;
10074;SDS011;5076;42.680;23.288;2023-02-12T01:24:29;8.60;;;5.03;;
10074;SDS011;5076;42.680;23.288;2023-02-12T01:26:56;6.00;;;4.63;;
10074;SDS011;5076;42.680;23.288;2023-02-12T01:29:23;7.00;;;5.00;;
10074;SDS011;5076;42.680;23.288;2023-02-12T01:31:51;8.77;;;5.70;;
10074;SDS011;5076;42.680;23.288;2023-02-12T01:34:19;7.77;;;5.57;;
10074;SDS011;5076;42.680;23.288;2023-02-12T01:36:45;7.13;;;5.40;;
10074;SDS011;5076;42.680;23.288;2023-02-12T01:39:12;8.73;;;5.93;;
10074;SDS011;5076;42.680;23.288;2023-02-12T01:41:40;7.43;;;5.50;;
10074;SDS011;5076;42.680;23.288;2023-02-12T01:44:09;9.40;;;5.93;;
10074;SDS011;5076;42.680;23.288;2023-02-12T01:46:39;8.43;;;5.73;;
10074;SDS011;5076;42.680;23.288;2023-02-12T01:49:08;10.33;;;5.53;;
10074;SDS011;5076;42.680;23.288;2023-02-12T01:51:39;9.27;;;5.97;;
10074;SDS011;5076;42.680;23.288;2023-02-12T01:54:07;7.47;;;5.60;;
10074;SDS011;5076;42.680;23.288;2023-02-12T01:56:37;8.57;;;5.87;;
10074;SDS011;5076;42.680;23.288;2023-02-12T01:59:05;9.40;;;5.77;;
10074;SDS011;5076;42.680;23.288;2023-02-12T02:01:32;7.77;;;5.73;;
10074;SDS011;5076;42.680;23.288;2023-02-12T02:04:00;10.93;;;6.30;;
10074;SDS011;5076;42.680;23.288;2023-02-12T02:06:31;10.07;;;5.77;;
10074;SDS011;5076;42.680;23.288;2023-02-12T02:09:01;8.87;;;5.97;;
10074;SDS011;5076;42.680;23.288;2023-02-12T02:11:29;9.87;;;5.97;;
10074;SDS011;5076;42.680;23.288;2023-02-12T02:14:13;8.13;;;5.90;;
10074;SDS011;5076;42.680;23.288;2023-02-12T02:20:05;9.03;;;6.13;;
10074;SDS011;5076;42.680;23.288;2023-02-12T02:23:03;8.47;;;6.57;;
10074;SDS011;5076;42.680;23.288;2023-02-12T02:29:00;11.73;;;7.17;;
10074;SDS011;5076;42.680;23.288;2023-02-12T02:31:41;14.20;;;7.97;;
10074;SDS011;5076;42.680;23.288;2023-02-12T02:34:14;12.13;;;6.80;;
10074;SDS011;5076;42.680;23.288;2023-02-12T02:36:46;9.23;;;6.33;;
10074;SDS011;5076;42.680;23.288;2023-02-12T02:39:21;9.23;;;6.20;;
10074;SDS011;5076;42.680;23.288;2023-02-12T02:41:54;10.00;;;6.40;;
10074;SDS011;5076;42.680;23.288;2023-02-12T02:44:25;13.60;;;6.80;;
10074;SDS011;5076;42.680;23.288;2023-02-12T02:47:00;9.53;;;6.23;;
10074;SDS011;5076;42.680;23.288;2023-02-12T02:49:30;10.80;;;5.97;;
10074;SDS011;5076;42.680;23.288;2023-02-12T02:52:02;10.07;;;6.53;;
10074;SDS011;5076;42.680;23.288;2023-02-12T02:54:33;9.53;;;5.67;;
10074;SDS011;5076;42.680;23.288;2023-02-12T02:57:05;7.43;;;5.87;;
10074;SDS011;5076;42.680;23.288;2023-02-12T02:59:35;9.60;;;6.47;;
10074;SDS011;5076;42.680;23.288;2023-02-12T03:02:10;10.23;;;6.90;;
10074;SDS011;5076;42.680;23.288;2023-02-12T03:04:41;8.37;;;6.23;;
10074;SDS011;5076;42.680;23.288;2023-02-12T03:07:12;11.43;;;6.43;;
10074;SDS011;5076;42.680;23.288;2023-02-12T03:09:46;12.47;;;6.70;;
10074;SDS011;5076;42.680;23.288;2023-02-12T03:12:17;10.70;;;6.73;;
10074;SDS011;5076;42.680;23.288;2023-02-12T03:14:50;11.63;;;7.90;;
10074;SDS011;5076;42.680;23.288;2023-02-12T03:17:25;10.53;;;7.40;;
10074;SDS011;5076;42.680;23.288;2023-02-12T03:19:57;11.43;;;8.07;;
10074;SDS011;5076;42.680;23.288;2023-02-12T03:22:28;12.77;;;8.10;;
10074;SDS011;5076;42.680;23.288;2023-02-12T03:25:00;14.33;;;7.80;;
10074;SDS011;5076;42.680;23.288;2023-02-12T03:27:30;12.23;;;8.13;;
10074;SDS011;5076;42.680;23.288;2023-02-12T03:29:59;12.63;;;8.13;;
10074;SDS011;5076;42.680;23.288;2023-02-12T03:32:29;9.83;;;7.40;;
10074;SDS011;5076;42.680;23.288;2023-02-12T03:35:08;12.70;;;7.87;;
10074;SDS011;5076;42.680;23.288;2023-02-12T03:37:40;12.67;;;8.07;;
10074;SDS011;5076;42.680;23.288;2023-02-12T03:40:16;12.27;;;7.40;;
10074;SDS011;5076;42.680;23.288;2023-02-12T03:42:50;10.80;;;7.50;;
10074;SDS011;5076;42.680;23.288;2023-02-12T03:45:26;11.13;;;7.47;;
10074;SDS011;5076;42.680;23.288;2023-02-12T03:48:03;11.23;;;7.80;;
10074;SDS011;5076;42.680;23.288;2023-02-12T03:50:36;12.20;;;8.77;;
10074;SDS011;5076;42.680;23.288;2023-02-12T03:53:08;12.50;;;8.67;;
10074;SDS011;5076;42.680;23.288;2023-02-12T03:55:35;11.80;;;8.47;;
10074;SDS011;5076;42.680;23.288;2023-02-12T03:58:07;13.60;;;9.10;;
10074;SDS011;5076;42.680;23.288;2023-02-12T04:00:36;13.60;;;9.13;;
10074;SDS011;5076;42.680;23.288;2023-02-12T04:03:06;13.60;;;8.93;;
10074;SDS011;5076;42.680;23.288;2023-02-12T04:05:33;14.20;;;9.00;;
10074;SDS011;5076;42.680;23.288;2023-02-12T04:08:00;12.60;;;8.90;;
10074;SDS011;5076;42.680;23.288;2023-02-12T04:10:31;11.80;;;7.83;;
10074;SDS011;5076;42.680;23.288;2023-02-12T04:13:06;14.47;;;8.83;;
10074;SDS011;5076;42.680;23.288;2023-02-12T04:15:45;13.97;;;8.63;;
10074;SDS011;5076;42.680;23.288;2023-02-12T04:18:26;11.27;;;7.90;;
10074;SDS011;5076;42.680;23.288;2023-02-12T04:20:57;13.00;;;8.70;;
10074;SDS011;5076;42.680;23.288;2023-02-12T04:23:41;13.00;;;8.43;;
10074;SDS011;5076;42.680;23.288;2023-02-12T04:26:16;12.07;;;7.77;;
10074;SDS011;5076;42.680;23.288;2023-02-12T04:28:51;13.00;;;8.77;;
10074;SDS011;5076;42.680;23.288;2023-02-12T04:31:29;15.20;;;8.30;;
10074;SDS011;5076;42.680;23.288;2023-02-12T04:34:04;19.37;;;8.93;;
10074;SDS011;5076;42.680;23.288;2023-02-12T04:36:36;12.07;;;8.37;;
10074;SDS011;5076;42.680;23.288;2023-02-12T04:39:08;11.00;;;7.80;;
10074;SDS011;5076;42.680;23.288;2023-02-12T04:41:40;12.17;;;8.00;;
10074;SDS011;5076;42.680;23.288;2023-02-12T04:44:13;13.23;;;8.73;;
10074;SDS011;5076;42.680;23.288;2023-02-12T04:46:41;11.17;;;8.60;;
10074;SDS011;5076;42.680;23.288;2023-02-12T04:49:10;14.73;;;10.00;;
10074;SDS011;5076;42.680;23.288;2023-02-12T04:51:40;20.70;;;11.53;;
10074;SDS011;5076;42.680;23.288;2023-02-12T04:54:07;16.40;;;11.43;;
10074;SDS011;5076;42.680;23.288;2023-02-12T04:56:34;24.67;;;15.97;;
10074;SDS011;5076;42.680;23.288;2023-02-12T04:59:00;20.83;;;13.73;;
10074;SDS011;5076;42.680;23.288;2023-02-12T05:01:27;19.90;;;12.47;;
10074;SDS011;5076;42.680;23.288;2023-02-12T05:03:54;19.17;;;10.33;;
10074;SDS011;5076;42.680;23.288;2023-02-12T05:06:23;15.37;;;10.00;;
10074;SDS011;5076;42.680;23.288;2023-02-12T05:08:51;15.03;;;9.70;;
10074;SDS011;5076;42.680;23.288;2023-02-12T05:11:18;13.43;;;8.33;;
10074;SDS011;5076;42.680;23.288;2023-02-12T05:13:47;14.13;;;8.30;;
10074;SDS011;5076;42.680;23.288;2023-02-12T05:16:14;12.93;;;8.30;;
10074;SDS011;5076;42.680;23.288;2023-02-12T05:18:41;11.53;;;7.73;;
10074;SDS011;5076;42.680;23.288;2023-02-12T05:21:08;15.00;;;8.33;;
10074;SDS011;5076;42.680;23.288;2023-02-12T05:23:37;11.43;;;7.57;;
10074;SDS011;5076;42.680;23.288;2023-02-12T05:26:06;13.87;;;8.53;;
10074;SDS011;5076;42.680;23.288;2023-02-12T05:28:34;11.97;;;7.97;;
10074;SDS011;5076;42.680;23.288;2023-02-12T05:31:01;13.80;;;7.67;;
10074;SDS011;5076;42.680;23.288;2023-02-12T05:33:30;12.40;;;7.67;;
10074;SDS011;5076;42.680;23.288;2023-02-12T05:36:01;12.93;;;7.50;;
10074;SDS011;5076;42.680;23.288;2023-02-12T05:38:28;11.43;;;7.10;;
10074;SDS011;5076;42.680;23.288;2023-02-12T05:41:01;10.33;;;7.10;;
10074;SDS011;5076;42.680;23.288;2023-02-12T05:43:28;11.17;;;6.97;;
10074;SDS011;5076;42.680;23.288;2023-02-12T05:45:57;10.97;;;7.40;;
10074;SDS011;5076;42.680;23.288;2023-02-12T05:48:24;12.60;;;8.07;;
10074;SDS011;5076;42.680;23.288;2023-02-12T05:50:51;9.80;;;7.80;;
10074;SDS011;5076;42.680;23.288;2023-02-12T05:53:17;14.10;;;8.63;;
10074;SDS011;5076;42.680;23.288;2023-02-12T05:55:44;16.93;;;9.17;;
10074;SDS011;5076;42.680;23.288;2023-02-12T05:58:13;13.90;;;9.40;;
10074;SDS011;5076;42.680;23.288;2023-02-12T06:00:39;14.37;;;8.83;;
10074;SDS011;5076;42.680;23.288;2023-02-12T06:03:06;14.40;;;8.90;;
10074;SDS011;5076;42.680;23.288;2023-02-12T06:05:33;12.73;;;7.77;;
10074;SDS011;5076;42.680;23.288;2023-02-12T06:08:00;10.20;;;6.87;;
10074;SDS011;5076;42.680;23.288;2023-02-12T06:10:27;11.93;;;7.67;;
10074;SDS011;5076;42.680;23.288;2023-02-12T06:12:54;12.60;;;7.83;;
10074;SDS011;5076;42.680;23.288;2023-02-12T06:15:22;10.60;;;7.40;;
10074;SDS011;5076;42.680;23.288;2023-02-12T06:17:49;11.30;;;6.77;;
10074;SDS011;5076;42.680;23.288;2023-02-12T06:20:15;11.60;;;7.97;;
10074;SDS011;5076;42.680;23.288;2023-02-12T06:22:42;13.97;;;8.70;;
10074;SDS011;5076;42.680;23.288;2023-02-12T06:25:09;13.67;;;8.13;;
10074;SDS011;5076;42.680;23.288;2023-02-12T06:27:36;12.17;;;7.57;;
10074;SDS011;5076;42.680;23.288;2023-02-12T06:30:03;14.70;;;8.60;;
10074;SDS011;5076;42.680;23.288;2023-02-12T06:32:32;12.27;;;7.33;;
10074;SDS011;5076;42.680;23.288;2023-02-12T06:34:58;11.37;;;7.90;;
10074;SDS011;5076;42.680;23.288;2023-02-12T06:37:25;11.53;;;7.57;;
10074;SDS011;5076;42.680;23.288;2023-02-12T06:39:52;12.27;;;8.63;;
10074;SDS011;5076;42.680;23.288;2023-02-12T06:42:19;12.90;;;8.33;;
10074;SDS011;5076;42.680;23.288;2023-02-12T06:44:46;14.07;;;8.27;;
10074;SDS011;5076;42.680;23.288;2023-02-12T06:47:13;11.20;;;7.87;;
10074;SDS011;5076;42.680;23.288;2023-02-12T06:49:41;11.63;;;7.37;;
10074;SDS011;5076;42.680;23.288;2023-02-12T06:52:08;10.10;;;7.10;;
10074;SDS011;5076;42.680;23.288;2023-02-12T06:54:35;13.33;;;7.90;;
10074;SDS011;5076;42.680;23.288;2023-02-12T06:57:02;11.80;;;8.00;;
10074;SDS011;5076;42.680;23.288;2023-02-12T06:59:29;11.57;;;8.10;;
10074;SDS011;5076;42.680;23.288;2023-02-12T07:01:56;12.03;;;7.60;;
10074;SDS011;5076;42.680;23.288;2023-02-12T07:04:23;12.00;;;7.53;;
10074;SDS011;5076;42.680;23.288;2023-02-12T07:06:51;11.67;;;7.77;;
10074;SDS011;5076;42.680;23.288;2023-02-12T07:09:18;10.53;;;7.20;;
10074;SDS011;5076;42.680;23.288;2023-02-12T07:11:44;13.40;;;7.80;;
10074;SDS011;5076;42.680;23.288;2023-02-12T07:14:12;10.83;;;7.53;;
10074;SDS011;5076;42.680;23.288;2023-02-12T07:16:39;12.87;;;7.23;;
10074;SDS011;5076;42.680;23.288;2023-02-12T07:19:06;11.87;;;6.73;;
10074;SDS011;5076;42.680;23.288;2023-02-12T07:21:33;11.00;;;7.43;;
10074;SDS011;5076;42.680;23.288;2023-02-12T07:24:01;11.80;;;6.67;;
10074;SDS011;5076;42.680;23.288;2023-02-12T07:26:28;11.53;;;8.37;;
10074;SDS011;5076;42.680;23.288;2023-02-12T07:28:55;11.60;;;7.80;;
10074;SDS011;5076;42.680;23.288;2023-02-12T07:31:22;9.10;;;6.50;;
10074;SDS011;5076;42.680;23.288;2023-02-12T07:33:52;13.50;;;8.93;;
10074;SDS011;5076;42.680;23.288;2023-02-12T07:36:19;15.43;;;9.83;;
10074;SDS011;5076;42.680;23.288;2023-02-12T07:38:47;12.97;;;9.27;;
10074;SDS011;5076;42.680;23.288;2023-02-12T07:41:15;21.37;;;13.03;;
10074;SDS011;5076;42.680;23.288;2023-02-12T07:43:44;23.53;;;13.20;;
10074;SDS011;5076;42.680;23.288;2023-02-12T07:46:14;27.53;;;15.07;;
10074;SDS011;5076;42.680;23.288;2023-02-12T07:48:42;29.33;;;16.87;;
10074;SDS011;5076;42.680;23.288;2023-02-12T07:51:10;17.07;;;10.57;;
10074;SDS011;5076;42.680;23.288;2023-02-12T07:53:38;17.37;;;11.17;;
10074;SDS011;5076;42.680;23.288;2023-02-12T07:56:06;13.97;;;9.23;;
10074;SDS011;5076;42.680;23.288;2023-02-12T07:58:36;17.10;;;10.07;;
10074;SDS011;5076;42.680;23.288;2023-02-12T08:01:16;15.43;;;10.60;;
10074;SDS011;5076;42.680;23.288;2023-02-12T08:03:44;16.07;;;11.30;;
10074;SDS011;5076;42.680;23.288;2023-02-12T08:06:14;15.30;;;10.73;;
10074;SDS011;5076;42.680;23.288;2023-02-12T08:08:43;17.53;;;12.13;;
10074;SDS011;5076;42.680;23.288;2023-02-12T08:11:10;15.27;;;11.03;;
10074;SDS011;5076;42.680;23.288;2023-02-12T08:13:40;17.23;;;11.50;;
10074;SDS011;5076;42.680;23.288;2023-02-12T08:16:08;15.30;;;10.97;;
10074;SDS011;5076;42.680;23.288;2023-02-12T08:18:36;17.50;;;12.20;;
10074;SDS011;5076;42.680;23.288;2023-02-12T08:21:04;17.47;;;11.60;;
10074;SDS011;5076;42.680;23.288;2023-02-12T08:23:32;17.80;;;10.93;;
10074;SDS011;5076;42.680;23.288;2023-02-12T08:26:07;16.97;;;12.37;;
10074;SDS011;5076;42.680;23.288;2023-02-12T08:28:35;20.53;;;12.03;;
10074;SDS011;5076;42.680;23.288;2023-02-12T08:31:06;18.40;;;11.80;;
10074;SDS011;5076;42.680;23.288;2023-02-12T08:33:34;15.47;;;11.60;;
10074;SDS011;5076;42.680;23.288;2023-02-12T08:36:02;17.10;;;12.13;;
10074;SDS011;5076;42.680;23.288;2023-02-12T08:38:31;15.47;;;11.53;;
10074;SDS011;5076;42.680;23.288;2023-02-12T08:41:01;15.63;;;11.17;;
10074;SDS011;5076;42.680;23.288;2023-02-12T08:43:29;16.40;;;10.57;;
10074;SDS011;5076;42.680;23.288;2023-02-12T08:46:03;13.77;;;10.00;;
10074;SDS011;5076;42.680;23.288;2023-02-12T08:48:32;12.77;;;10.00;;
10074;SDS011;5076;42.680;23.288;2023-02-12T08:51:03;14.53;;;10.77;;
10074;SDS011;5076;42.680;23.288;2023-02-12T08:53:31;14.87;;;11.07;;
10074;SDS011;5076;42.680;23.288;2023-02-12T08:55:58;17.70;;;11.77;;
10074;SDS011;5076;42.680;23.288;2023-02-12T08:58:25;15.23;;;10.43;;
10074;SDS011;5076;42.680;23.288;2023-02-12T09:00:52;14.30;;;9.97;;
10074;SDS011;5076;42.680;23.288;2023-02-12T09:03:19;13.43;;;9.80;;
10074;SDS011;5076;42.680;23.288;2023-02-12T09:05:47;16.13;;;10.60;;
10074;SDS011;5076;42.680;23.288;2023-02-12T09:08:14;14.53;;;11.33;;
10074;SDS011;5076;42.680;23.288;2023-02-12T09:10:41;17.00;;;11.10;;
10074;SDS011;5076;42.680;23.288;2023-02-12T09:13:09;15.13;;;10.97;;
10074;SDS011;5076;42.680;23.288;2023-02-12T09:15:37;15.47;;;11.33;;
10074;SDS011;5076;42.680;23.288;2023-02-12T09:18:04;16.53;;;11.87;;
10074;SDS011;5076;42.680;23.288;2023-02-12T09:20:32;14.13;;;10.33;;
10074;SDS011;5076;42.680;23.288;2023-02-12T09:23:03;17.10;;;11.53;;
10074;SDS011;5076;42.680;23.288;2023-02-12T09:25:30;17.90;;;12.40;;
10074;SDS011;5076;42.680;23.288;2023-02-12T09:27:58;15.33;;;11.00;;
10074;SDS011;5076;42.680;23.288;2023-02-12T09:30:25;17.53;;;11.60;;
10074;SDS011;5076;42.680;23.288;2023-02-12T09:32:52;17.23;;;11.97;;
10074;SDS011;5076;42.680;23.288;2023-02-12T09:35:20;21.77;;;12.97;;
10074;SDS011;5076;42.680;23.288;2023-02-12T09:37:47;18.60;;;12.33;;
10074;SDS011;5076;42.680;23.288;2023-02-12T09:40:17;15.53;;;10.83;;
10074;SDS011;5076;42.680;23.288;2023-02-12T09:42:52;21.03;;;11.33;;
10074;SDS011;5076;42.680;23.288;2023-02-12T09:45:26;15.37;;;11.43;;
10074;SDS011;5076;42.680;23.288;2023-02-12T09:47:58;15.73;;;11.17;;
10074;SDS011;5076;42.680;23.288;2023-02-12T09:50:32;15.87;;;12.30;;
10074;SDS011;5076;42.680;23.288;2023-02-12T09:53:07;15.50;;;11.30;;
10074;SDS011;5076;42.680;23.288;2023-02-12T09:55:39;15.40;;;10.77;;
10074;SDS011;5076;42.680;23.288;2023-02-12T09:58:09;16.70;;;10.90;;
10074;SDS011;5076;42.680;23.288;2023-02-12T10:00:39;15.50;;;11.50;;
10074;SDS011;5076;42.680;23.288;2023-02-12T10:03:10;13.70;;;10.73;;
10074;SDS011;5076;42.680;23.288;2023-02-12T10:05:40;17.20;;;12.40;;
10074;SDS011;5076;42.680;23.288;2023-02-12T10:08:17;15.80;;;11.90;;
10074;SDS011;5076;42.680;23.288;2023-02-12T10:11:03;19.33;;;13.30;;
10074;SDS011;5076;42.680;23.288;2023-02-12T10:13:42;21.63;;;13.40;;
10074;SDS011;5076;42.680;23.288;2023-02-12T10:16:19;19.00;;;13.00;;
10074;SDS011;5076;42.680;23.288;2023-02-12T10:19:04;18.60;;;13.80;;
10074;SDS011;5076;42.680;23.288;2023-02-12T10:21:42;18.63;;;13.30;;
10074;SDS011;5076;42.680;23.288;2023-02-12T10:24:30;19.83;;;13.03;;
10074;SDS011;5076;42.680;23.288;2023-02-12T10:27:14;21.83;;;13.47;;
10074;SDS011;5076;42.680;23.288;2023-02-12T10:29:44;18.77;;;12.87;;
10074;SDS011;5076;42.680;23.288;2023-02-12T10:32:12;20.57;;;13.73;;
10074;SDS011;5076;42.680;23.288;2023-02-12T10:34:50;22.53;;;14.40;;
10074;SDS011;5076;42.680;23.288;2023-02-12T10:37:21;21.60;;;14.80;;
10074;SDS011;5076;42.680;23.288;2023-02-12T10:39:57;19.27;;;14.30;;
10074;SDS011;5076;42.680;23.288;2023-02-12T10:42:34;24.97;;;15.73;;
10074;SDS011;5076;42.680;23.288;2023-02-12T10:45:04;17.97;;;12.80;;
10074;SDS011;5076;42.680;23.288;2023-02-12T10:47:37;18.77;;;13.20;;
10074;SDS011;5076;42.680;23.288;2023-02-12T10:50:16;20.90;;;14.33;;
10074;SDS011;5076;42.680;23.288;2023-02-12T10:52:50;19.20;;;13.83;;
10074;SDS011;5076;42.680;23.288;2023-02-12T10:55:27;22.10;;;13.77;;
10074;SDS011;5076;42.680;23.288;2023-02-12T10:57:57;18.60;;;12.63;;
10074;SDS011;5076;42.680;23.288;2023-02-12T11:00:28;20.57;;;14.07;;
10074;SDS011;5076;42.680;23.288;2023-02-12T11:03:00;19.40;;;13.20;;
10074;SDS011;5076;42.680;23.288;2023-02-12T11:05:30;19.53;;;13.43;;
10074;SDS011;5076;42.680;23.288;2023-02-12T11:07:59;21.90;;;14.37;;
10074;SDS011;5076;42.680;23.288;2023-02-12T11:10:26;24.10;;;14.17;;
10074;SDS011;5076;42.680;23.288;2023-02-12T11:12:57;19.13;;;12.63;;
10074;SDS011;5076;42.680;23.288;2023-02-12T11:15:25;19.77;;;14.27;;
10074;SDS011;5076;42.680;23.288;2023-02-12T11:17:57;20.13;;;14.13;;
10074;SDS011;5076;42.680;23.288;2023-02-12T11:20:26;16.33;;;12.77;;
10074;SDS011;5076;42.680;23.288;2023-02-12T11:22:55;20.60;;;14.60;;
10074;SDS011;5076;42.680;23.288;2023-02-12T11:25:24;22.67;;;14.93;;
10074;SDS011;5076;42.680;23.288;2023-02-12T11:28:02;19.93;;;13.33;;
10074;SDS011;5076;42.680;23.288;2023-02-12T11:30:47;21.23;;;13.90;;
10074;SDS011;5076;42.680;23.288;2023-02-12T11:33:20;17.70;;;12.53;;
10074;SDS011;5076;42.680;23.288;2023-02-12T11:35:50;18.20;;;13.57;;
10074;SDS011;5076;42.680;23.288;2023-02-12T11:38:24;20.73;;;13.10;;
10074;SDS011;5076;42.680;23.288;2023-02-12T11:40:55;18.03;;;12.27;;
10074;SDS011;5076;42.680;23.288;2023-02-12T11:43:26;17.13;;;12.13;;
10074;SDS011;5076;42.680;23.288;2023-02-12T11:45:55;20.90;;;14.40;;
10074;SDS011;5076;42.680;23.288;2023-02-12T11:48:24;17.47;;;12.47;;
10074;SDS011;5076;42.680;23.288;2023-02-12T11:50:55;21.60;;;13.70;;
10074;SDS011;5076;42.680;23.288;2023-02-12T11:53:24;21.50;;;13.97;;
10074;SDS011;5076;42.680;23.288;2023-02-12T11:55:56;18.23;;;13.80;;
10074;SDS011;5076;42.680;23.288;2023-02-12T11:58:27;17.67;;;12.67;;
10074;SDS011;5076;42.680;23.288;2023-02-12T12:01:00;18.53;;;12.63;;
10074;SDS011;5076;42.680;23.288;2023-02-12T12:03:33;21.33;;;14.27;;
10074;SDS011;5076;42.680;23.288;2023-02-12T12:06:09;17.07;;;12.13;;
10074;SDS011;5076;42.680;23.288;2023-02-12T12:08:47;18.07;;;12.40;;
10074;SDS011;5076;42.680;23.288;2023-02-12T12:11:19;16.90;;;13.07;;
10074;SDS011;5076;42.680;23.288;2023-02-12T12:13:52;20.80;;;13.73;;
10074;SDS011;5076;42.680;23.288;2023-02-12T12:16:30;15.83;;;11.60;;
10074;SDS011;5076;42.680;23.288;2023-02-12T12:19:23;21.67;;;13.47;;
10074;SDS011;5076;42.680;23.288;2023-02-12T12:22:15;18.47;;;13.37;;
10074;SDS011;5076;42.680;23.288;2023-02-12T12:24:52;19.43;;;12.73;;
10074;SDS011;5076;42.680;23.288;2023-02-12T12:27:24;19.13;;;13.43;;
10074;SDS011;5076;42.680;23.288;2023-02-12T12:30:17;18.40;;;13.50;;
10074;SDS011;5076;42.680;23.288;2023-02-12T12:32:48;17.93;;;12.67;;
10074;SDS011;5076;42.680;23.288;2023-02-12T12:35:20;15.70;;;11.50;;
10074;SDS011;5076;42.680;23.288;2023-02-12T12:37:56;19.03;;;11.77;;
10074;SDS011;5076;42.680;23.288;2023-02-12T12:40:41;17.67;;;11.97;;
10074;SDS011;5076;42.680;23.288;2023-02-12T12:43:23;21.40;;;13.30;;
10074;SDS011;5076;42.680;23.288;2023-02-12T12:46:02;17.73;;;12.93;;
10074;SDS011;5076;42.680;23.288;2023-02-12T12:48:54;16.83;;;12.53;;
10074;SDS011;5076;42.680;23.288;2023-02-12T12:51:36;21.70;;;13.17;;
10074;SDS011;5076;42.680;23.288;2023-02-12T12:54:23;17.67;;;13.17;;
10074;SDS011;5076;42.680;23.288;2023-02-12T12:57:03;19.40;;;13.60;;
10074;SDS011;5076;42.680;23.288;2023-02-12T13:05:46;19.53;;;13.87;;
10074;SDS011;5076;42.680;23.288;2023-02-12T13:08:42;20.73;;;13.87;;
10074;SDS011;5076;42.680;23.288;2023-02-12T13:11:33;20.33;;;13.97;;
10074;SDS011;5076;42.680;23.288;2023-02-12T13:14:09;18.73;;;12.40;;
10074;SDS011;5076;42.680;23.288;2023-02-12T13:16:49;19.20;;;13.40;;
10074;SDS011;5076;42.680;23.288;2023-02-12T13:19:29;19.17;;;13.43;;
10074;SDS011;5076;42.680;23.288;2023-02-12T13:22:07;20.00;;;14.20;;
10074;SDS011;5076;42.680;23.288;2023-02-12T13:24:39;20.47;;;14.57;;
10074;SDS011;5076;42.680;23.288;2023-02-12T13:27:11;23.30;;;15.03;;
10074;SDS011;5076;42.680;23.288;2023-02-12T13:29:43;20.10;;;14.70;;
10074;SDS011;5076;42.680;23.288;2023-02-12T13:32:15;18.20;;;12.93;;
10074;SDS011;5076;42.680;23.288;2023-02-12T13:34:49;21.70;;;14.87;;
10074;SDS011;5076;42.680;23.288;2023-02-12T13:37:19;22.13;;;15.10;;
10074;SDS011;5076;42.680;23.288;2023-02-12T13:39:51;19.70;;;13.63;;
10074;SDS011;5076;42.680;23.288;2023-02-12T13:42:24;20.47;;;14.47;;
10074;SDS011;5076;42.680;23.288;2023-02-12T13:45:12;18.33;;;13.80;;
10074;SDS011;5076;42.680;23.288;2023-02-12T13:47:47;22.60;;;15.80;;
10074;SDS011;5076;42.680;23.288;2023-02-12T13:50:29;26.23;;;15.57;;
10074;SDS011;5076;42.680;23.288;2023-02-12T13:53:10;20.77;;;15.00;;
10074;SDS011;5076;42.680;23.288;2023-02-12T13:55:48;23.03;;;14.83;;
10074;SDS011;5076;42.680;23.288;2023-02-12T13:58:37;22.57;;;14.30;;
10074;SDS011;5076;42.680;23.288;2023-02-12T14:01:35;20.80;;;14.50;;
10074;SDS011;5076;42.680;23.288;2023-02-12T14:04:25;21.60;;;14.80;;
10074;SDS011;5076;42.680;23.288;2023-02-12T14:06:58;20.80;;;15.10;;
10074;SDS011;5076;42.680;23.288;2023-02-12T14:09:39;20.37;;;14.10;;
10074;SDS011;5076;42.680;23.288;2023-02-12T14:12:08;21.60;;;14.73;;
10074;SDS011;5076;42.680;23.288;2023-02-12T14:14:38;21.30;;;15.57;;
10074;SDS011;5076;42.680;23.288;2023-02-12T14:20:11;19.83;;;14.47;;
10074;SDS011;5076;42.680;23.288;2023-02-12T14:22:57;23.03;;;16.33;;
10074;SDS011;5076;42.680;23.288;2023-02-12T14:25:41;22.57;;;15.87;;
10074;SDS011;5076;42.680;23.288;2023-02-12T14:28:21;25.57;;;16.63;;
10074;SDS011;5076;42.680;23.288;2023-02-12T14:37:08;21.57;;;14.07;;
10074;SDS011;5076;42.680;23.288;2023-02-12T14:39:36;20.47;;;14.30;;
10074;SDS011;5076;42.680;23.288;2023-02-12T14:47:55;19.57;;;14.20;;
10074;SDS011;5076;42.680;23.288;2023-02-12T14:50:23;25.73;;;16.60;;
10074;SDS011;5076;42.680;23.288;2023-02-12T14:52:57;22.73;;;17.10;;
10074;SDS011;5076;42.680;23.288;2023-02-12T14:55:30;20.10;;;15.93;;
10074;SDS011;5076;42.680;23.288;2023-02-12T14:58:02;22.50;;;15.43;;
10074;SDS011;5076;42.680;23.288;2023-02-12T15:00:33;24.03;;;16.60;;
10074;SDS011;5076;42.680;23.288;2023-02-12T15:03:17;21.03;;;15.37;;
10074;SDS011;5076;42.680;23.288;2023-02-12T15:06:00;23.17;;;16.33;;
10074;SDS011;5076;42.680;23.288;2023-02-12T15:08:31;25.00;;;17.03;;
10074;SDS011;5076;42.680;23.288;2023-02-12T15:11:11;26.30;;;17.77;;
10074;SDS011;5076;42.680;23.288;2023-02-12T15:13:48;25.37;;;18.43;;
10074;SDS011;5076;42.680;23.288;2023-02-12T15:16:25;26.37;;;18.33;;
10074;SDS011;5076;42.680;23.288;2023-02-12T15:18:59;27.70;;;18.90;;
10074;SDS011;5076;42.680;23.288;2023-02-12T15:21:31;26.37;;;19.20;;
10074;SDS011;5076;42.680;23.288;2023-02-12T15:24:05;27.03;;;18.77;;